createdAt,value
2018-01-10T00:03:36.547Z,25.58
2018-01-10T00:08:59.397Z,25.95
2018-01-10T00:14:22.173Z,25.65
2018-01-10T00:25:48.895Z,25.75
2018-01-10T00:28:23.894Z,26.58
2018-01-10T00:33:46.410Z,27.00
2018-01-10T00:45:28.352Z,27.13
2018-01-10T00:51:11.577Z,28.48
2018-01-10T01:08:53.796Z,28.70
2018-01-10T01:23:29.097Z,27.98
2018-01-10T01:25:56.968Z,28.95
2018-01-10T01:34:19.253Z,28.55
2018-01-10T01:39:55.716Z,27.70
2018-01-10T01:42:25.057Z,29.20
2018-01-10T01:47:50.045Z,28.62
2018-01-10T01:50:18.175Z,26.67
2018-01-10T02:05:08.741Z,33.10
2018-01-10T02:25:03.166Z,29.55
2018-01-10T02:30:19.180Z,30.75
2018-01-10T02:38:54.606Z,29.65
2018-01-10T02:44:31.679Z,31.25
2018-01-10T02:50:19.025Z,30.48
2018-01-10T02:55:51.772Z,27.95
2018-01-10T03:19:38.524Z,28.65
2018-01-10T03:28:05.474Z,28.92
2018-01-10T03:39:39.126Z,27.62
2018-01-10T03:45:11.886Z,27.02
2018-01-10T04:00:04.281Z,29.60
2018-01-10T04:05:20.854Z,29.10
2018-01-10T04:19:48.784Z,31.17
2018-01-10T04:22:17.440Z,31.95
2018-01-10T04:24:45.969Z,30.90
2018-01-10T04:27:15.396Z,32.97
2018-01-10T04:29:45.182Z,30.27
2018-01-10T04:32:17.149Z,31.85
2018-01-10T04:34:53.205Z,32.30
2018-01-10T04:41:59.433Z,32.67
2018-01-10T04:44:33.594Z,31.98
2018-01-10T04:50:33.736Z,32.47
2018-01-10T04:55:47.440Z,30.20
2018-01-10T04:58:15.717Z,32.30
2018-01-10T05:00:44.200Z,32.03
2018-01-10T05:06:08.546Z,32.53
2018-01-10T05:08:41.808Z,32.42
2018-01-10T05:17:06.213Z,28.67
2018-01-10T05:22:30.882Z,31.60
2018-01-10T05:24:59.058Z,35.65
2018-01-10T05:27:27.843Z,29.77
2018-01-10T05:30:04.421Z,31.12
2018-01-10T05:32:32.734Z,33.67
2018-01-10T05:38:07.221Z,31.62
2018-01-10T05:40:35.401Z,31.83
2018-01-10T05:43:09.826Z,32.08
2018-01-10T06:00:30.766Z,33.35
2018-01-10T06:02:58.636Z,32.63
2018-01-10T06:05:26.702Z,36.40
2018-01-10T06:07:54.618Z,32.10
2018-01-10T06:10:32.384Z,31.40
2018-01-10T06:13:02.302Z,35.17
2018-01-10T06:15:30.179Z,32.47
2018-01-10T06:17:58.020Z,33.45
2018-01-10T06:23:15.316Z,32.47
2018-01-10T06:26:04.192Z,32.60
2018-01-10T06:28:32.141Z,32.55
2018-01-10T07:59:30.784Z,32.92
2018-01-10T08:01:59.212Z,37.63
2018-01-10T08:04:27.815Z,33.63
2018-01-10T08:06:57.866Z,34.90
2018-01-10T08:12:34.434Z,35.63
2018-01-10T08:15:03.063Z,33.53
2018-01-10T08:23:20.371Z,34.30
2018-01-10T08:34:53.333Z,33.00
2018-01-10T08:37:38.610Z,35.40
2018-01-10T08:48:58.951Z,31.92
2018-01-10T09:06:21.089Z,36.17
2018-01-10T09:17:52.804Z,35.13
2018-01-10T09:20:32.479Z,36.33
2018-01-10T09:47:26.869Z,35.88
2018-01-10T09:56:04.706Z,35.47
2018-01-10T09:58:40.897Z,34.85
2018-01-10T10:01:11.044Z,34.65
2018-01-10T10:03:47.666Z,36.95
2018-01-10T10:06:15.674Z,36.70
2018-01-10T10:08:43.569Z,36.03
2018-01-10T10:11:11.552Z,35.63
2018-01-10T10:14:02.253Z,36.33
2018-01-10T10:16:30.486Z,33.30
2018-01-10T10:19:04.930Z,34.60
2018-01-10T10:36:40.564Z,33.90
2018-01-10T10:39:14.569Z,35.90
2018-01-10T10:41:42.457Z,36.63
2018-01-10T10:44:10.377Z,32.37
2018-01-10T10:46:38.308Z,34.40
2018-01-10T10:49:06.221Z,34.77
2018-01-10T10:51:34.098Z,32.30
2018-01-10T10:54:01.989Z,33.73
2018-01-10T10:56:29.920Z,30.10
2018-01-10T10:58:57.864Z,34.17
2018-01-10T11:01:25.740Z,29.97
2018-01-10T11:03:53.610Z,36.13
2018-01-10T11:06:21.505Z,31.20
2018-01-10T11:08:49.416Z,34.97
2018-01-10T11:11:17.273Z,31.43
2018-01-10T11:13:45.207Z,31.00
2018-01-10T11:16:13.072Z,31.13
2018-01-10T11:18:41.016Z,33.07
2018-01-10T11:21:08.888Z,33.10
2018-01-10T11:23:36.735Z,29.87
2018-01-10T11:26:04.605Z,32.70
2018-01-10T11:28:32.511Z,32.20
2018-01-10T11:31:00.383Z,34.27
2018-01-10T11:33:28.256Z,32.63
2018-01-10T11:35:56.108Z,31.23
2018-01-10T11:38:24.093Z,31.90
2018-01-10T11:43:55.680Z,36.17
2018-01-10T11:46:32.217Z,31.90
2018-01-10T11:49:02.705Z,31.27
2018-01-10T11:51:31.050Z,31.90
2018-01-10T11:53:58.929Z,32.90
2018-01-10T11:56:26.899Z,33.80
2018-01-10T11:58:54.920Z,31.40
2018-01-10T12:01:22.864Z,32.17
2018-01-10T12:03:50.715Z,31.80
2018-01-10T12:06:18.549Z,32.10
2018-01-10T12:08:46.417Z,30.37
2018-01-10T12:11:14.316Z,32.63
2018-01-10T12:13:42.216Z,33.87
2018-01-10T12:16:10.104Z,32.60
2018-01-10T12:18:37.983Z,33.37
2018-01-10T12:21:05.821Z,35.20
2018-01-10T12:23:33.714Z,33.93
2018-01-10T12:26:01.617Z,32.90
2018-01-10T12:28:29.489Z,38.70
2018-01-10T12:30:57.473Z,38.00
2018-01-10T12:33:25.320Z,35.60
2018-01-10T12:35:53.186Z,34.13
2018-01-10T12:38:21.049Z,37.50
2018-01-10T12:40:48.932Z,36.73
2018-01-10T12:43:16.809Z,38.40
2018-01-10T12:45:44.689Z,35.50
2018-01-10T12:48:12.597Z,38.03
2018-01-10T12:50:40.452Z,38.50
2018-01-10T12:53:08.316Z,37.83
2018-01-10T12:55:36.196Z,34.10
2018-01-10T12:58:04.062Z,34.87
2018-01-10T13:00:32.587Z,36.00
2018-01-10T13:03:00.450Z,36.77
2018-01-10T13:05:28.292Z,35.50
2018-01-10T13:07:56.166Z,35.57
2018-01-10T13:10:24.019Z,36.73
2018-01-10T13:12:51.864Z,35.53
2018-01-10T13:15:19.722Z,36.20
2018-01-10T13:20:51.945Z,35.30
2018-01-10T13:23:19.826Z,34.53
2018-01-10T13:25:47.740Z,34.63
2018-01-10T13:28:15.627Z,34.00
2018-01-10T13:33:30.997Z,34.90
2018-01-10T13:36:02.585Z,35.17
2018-01-10T13:38:30.468Z,35.80
2018-01-10T13:40:58.319Z,35.10
2018-01-10T13:43:26.249Z,33.80
2018-01-10T13:45:54.114Z,33.47
2018-01-10T13:48:22.141Z,37.70
2018-01-10T13:50:49.997Z,35.73
2018-01-10T13:53:17.885Z,34.70
2018-01-10T13:55:45.729Z,56.30
2018-01-10T13:58:13.825Z,41.27
2018-01-10T14:00:41.691Z,41.63
2018-01-10T14:03:09.549Z,33.30
2018-01-10T14:05:37.425Z,33.37
2018-01-10T14:08:05.300Z,34.40
2018-01-10T14:10:33.145Z,36.63
2018-01-10T14:13:01.024Z,34.93
2018-01-10T14:15:28.904Z,36.50
2018-01-10T14:20:47.050Z,35.60
2018-01-10T14:23:32.291Z,37.20
2018-01-10T14:26:03.755Z,37.33
2018-01-10T14:31:32.475Z,32.43
2018-01-10T14:34:00.354Z,34.30
2018-01-10T14:36:28.200Z,32.63
2018-01-10T14:38:56.066Z,32.90
2018-01-10T14:41:23.932Z,33.00
2018-01-10T14:43:51.804Z,34.40
2018-01-10T14:46:19.709Z,32.67
2018-01-10T14:48:47.696Z,35.70
2018-01-10T14:51:15.553Z,32.10
2018-01-10T14:53:43.397Z,33.50
2018-01-10T14:56:11.250Z,35.83
2018-01-10T15:01:31.806Z,30.50
2018-01-10T15:04:00.868Z,33.17
2018-01-10T15:06:28.898Z,34.60
2018-01-10T15:09:03.625Z,33.83
2018-01-10T15:11:31.474Z,33.60
2018-01-10T15:13:59.312Z,32.77
2018-01-10T15:16:27.201Z,35.87
2018-01-10T15:18:55.054Z,35.63
2018-01-10T15:21:23.008Z,35.40
2018-01-10T15:23:50.902Z,34.73
2018-01-10T15:26:18.772Z,34.67
2018-01-10T15:28:46.622Z,34.60
2018-01-10T15:31:14.517Z,34.33
2018-01-10T15:33:42.781Z,32.77
2018-01-10T15:36:10.647Z,35.27
2018-01-10T15:38:38.726Z,31.17
2018-01-10T15:43:43.170Z,32.00
2018-01-10T15:48:59.649Z,34.53
2018-01-10T15:51:27.536Z,31.80
2018-01-10T15:53:55.377Z,31.13
2018-01-10T15:56:32.408Z,33.17
2018-01-10T15:59:00.355Z,34.87
2018-01-10T16:01:28.292Z,33.47
2018-01-10T16:03:56.135Z,31.83
2018-01-10T16:06:24.008Z,34.00
2018-01-10T16:08:51.884Z,32.83
2018-01-10T16:11:19.744Z,32.90
2018-01-10T16:13:47.657Z,35.00
2018-01-10T16:16:15.571Z,34.40
2018-01-10T16:18:43.452Z,34.80
2018-01-10T16:21:11.379Z,33.17
2018-01-10T16:23:39.204Z,36.50
2018-01-10T16:26:07.074Z,35.23
2018-01-10T16:28:35.013Z,33.00
2018-01-10T16:31:02.924Z,35.37
2018-01-10T16:33:30.787Z,35.80
2018-01-10T16:35:58.670Z,34.13
2018-01-10T16:38:26.512Z,36.37
2018-01-10T16:40:54.422Z,34.83
2018-01-10T16:43:22.392Z,36.63
2018-01-10T16:45:50.465Z,37.20
2018-01-10T16:48:32.871Z,36.53
2018-01-10T16:51:02.821Z,33.80
2018-01-10T16:53:30.859Z,38.33
2018-01-10T16:55:58.726Z,36.90
2018-01-10T16:58:26.621Z,35.63
2018-01-10T17:00:54.497Z,36.37
2018-01-10T17:03:28.330Z,36.00
2018-01-10T17:05:56.652Z,36.43
2018-01-10T17:11:20.250Z,34.60
2018-01-10T17:13:48.124Z,35.10
2018-01-10T17:22:33.712Z,35.10
2018-01-10T17:25:02.127Z,36.23
2018-01-10T17:27:29.976Z,33.17
2018-01-10T17:29:57.838Z,34.07
2018-01-10T17:32:25.708Z,35.20
2018-01-10T17:34:53.577Z,37.03
2018-01-10T17:37:21.417Z,33.83
2018-01-10T17:39:50.523Z,34.20
2018-01-10T17:42:18.469Z,35.77
2018-01-10T17:44:46.445Z,35.77
2018-01-10T17:47:15.143Z,35.20
2018-01-10T17:49:43.224Z,33.20
2018-01-10T17:52:11.144Z,35.87
2018-01-10T17:54:39.067Z,34.97
2018-01-10T18:00:12.397Z,35.17
2018-01-10T18:05:29.534Z,33.40
2018-01-10T18:07:57.384Z,36.33
2018-01-10T18:10:25.241Z,34.03
2018-01-10T18:12:53.135Z,33.13
2018-01-10T18:15:21.034Z,32.63
2018-01-10T18:17:50.266Z,33.97
2018-01-10T18:20:18.562Z,33.70
2018-01-10T18:22:46.520Z,33.13
2018-01-10T18:25:15.532Z,32.33
2018-01-10T18:27:44.516Z,33.20
2018-01-10T18:36:12.160Z,33.50
2018-01-10T18:41:51.709Z,32.97
2018-01-10T18:44:19.716Z,32.73
2018-01-10T18:46:55.123Z,33.90
2018-01-10T18:49:33.631Z,34.20
2018-01-10T18:58:01.918Z,31.70
2018-01-10T19:00:30.027Z,34.30
2018-01-10T19:02:58.149Z,35.10
2018-01-10T19:20:30.394Z,37.63
2018-01-10T19:23:02.277Z,35.27
2018-01-10T19:25:30.205Z,36.17
2018-01-10T19:27:58.227Z,35.67
2018-01-10T19:30:26.350Z,36.17
2018-01-10T19:32:55.663Z,35.10
2018-01-10T19:35:23.654Z,38.20
2018-01-10T19:37:51.656Z,36.40
2018-01-10T19:40:20.128Z,34.57
2018-01-10T19:42:48.822Z,34.00
2018-01-10T19:45:32.195Z,34.10
2018-01-10T19:48:08.490Z,34.30
2018-01-10T19:50:36.381Z,32.50
2018-01-10T19:53:04.228Z,35.50
2018-01-10T19:55:32.072Z,36.83
2018-01-10T19:58:04.048Z,35.17
2018-01-10T20:00:31.897Z,32.70
2018-01-10T20:02:59.781Z,36.60
2018-01-10T20:05:32.654Z,35.77
2018-01-10T20:08:02.959Z,35.97
2018-01-10T20:10:34.559Z,35.40
2018-01-10T20:15:57.309Z,34.70
2018-01-10T20:18:25.222Z,32.67
2018-01-10T20:20:53.086Z,35.00
2018-01-10T20:23:20.924Z,35.90
2018-01-10T20:25:48.790Z,34.87
2018-01-10T20:28:16.671Z,38.28
2018-01-10T20:30:44.600Z,37.47
2018-01-10T20:33:12.667Z,35.80
2018-01-10T20:35:41.458Z,34.90
2018-01-10T20:38:10.367Z,33.47
2018-01-10T20:40:38.251Z,35.97
2018-01-10T20:43:06.099Z,34.63
2018-01-10T20:45:34.202Z,34.97
2018-01-10T20:48:02.335Z,36.00
2018-01-10T20:53:30.701Z,35.30
2018-01-10T20:55:58.807Z,37.17
2018-01-10T20:58:30.669Z,34.90
2018-01-10T21:00:59.113Z,35.70
2018-01-10T21:03:27.183Z,35.27
2018-01-10T21:05:55.672Z,33.53
2018-01-10T21:08:23.527Z,38.90
2018-01-10T21:10:52.380Z,35.97
2018-01-10T21:13:20.209Z,35.97
2018-01-10T21:15:48.076Z,36.83
2018-01-10T21:18:15.904Z,36.23
2018-01-10T21:20:44.757Z,36.97
2018-01-10T21:23:12.614Z,37.87
2018-01-10T21:25:40.460Z,36.40
2018-01-10T21:28:08.347Z,36.00
2018-01-10T21:30:36.199Z,35.30
2018-01-10T21:33:04.119Z,36.60
2018-01-10T21:35:31.964Z,37.20
2018-01-10T21:37:59.818Z,37.87
2018-01-10T21:40:29.690Z,39.10
2018-01-10T21:42:58.461Z,38.30
2018-01-10T21:51:04.260Z,38.00
2018-01-10T21:53:33.040Z,35.43
2018-01-10T21:56:01.213Z,38.53
2018-01-10T21:58:36.183Z,37.43
2018-01-10T22:06:46.446Z,38.27
2018-01-10T22:09:14.453Z,39.40
2018-01-10T22:11:42.393Z,39.30
2018-01-10T22:14:13.468Z,39.27
2018-01-10T22:16:41.637Z,36.27
2018-01-10T22:19:09.534Z,37.85
2018-01-10T22:21:37.373Z,38.40
2018-01-10T22:24:05.224Z,37.67
2018-01-10T22:26:33.051Z,39.27
2018-01-10T22:29:07.760Z,40.40
2018-01-10T22:31:35.630Z,41.07
2018-01-10T22:34:03.512Z,38.85
2018-01-10T22:36:31.432Z,39.50
2018-01-10T22:38:59.300Z,40.10
2018-01-10T22:41:27.207Z,40.23
2018-01-10T22:43:55.053Z,39.97
2018-01-10T22:46:22.922Z,40.15
2018-01-10T22:51:38.237Z,39.40
2018-01-10T22:54:06.128Z,38.40
2018-01-10T22:56:33.983Z,40.40
2018-01-10T22:59:08.641Z,37.88
2018-01-10T23:01:36.539Z,39.55
2018-01-10T23:04:04.414Z,40.25
2018-01-10T23:06:32.288Z,40.97
2018-01-10T23:09:00.173Z,39.15
2018-01-10T23:11:28.038Z,41.10
2018-01-10T23:13:56.009Z,38.35
2018-01-10T23:16:23.880Z,39.63
2018-01-10T23:18:51.742Z,37.15
2018-01-10T23:21:19.616Z,39.42
2018-01-10T23:23:47.484Z,39.20
2018-01-10T23:26:15.348Z,38.60
2018-01-10T23:28:50.087Z,39.50
2018-01-10T23:31:17.992Z,39.43
2018-01-10T23:33:45.832Z,40.55
2018-01-10T23:36:13.717Z,41.78
2018-01-10T23:38:41.592Z,41.10
2018-01-10T23:41:10.248Z,39.87
2018-01-10T23:43:38.127Z,40.97
2018-01-10T23:46:06.057Z,39.28
2018-01-10T23:48:40.580Z,39.15
2018-01-10T23:51:08.447Z,39.78
2018-01-10T23:53:36.316Z,38.83
2018-01-10T23:56:04.167Z,39.70
2018-01-10T23:58:32.031Z,40.78
